Weather at Portland International Airport

Public forecast

Using degrees Fahrenheit for public forecast. Weather courtesy of forecast.io.

Current aviation weather report (METAR) for Portland International Airport

Retrieved 2021/09/25 04:53 UTC (40 minutes ago):

KPDX 250453Z 28006KT 10SM CLR 21/13 A2984 RMK AO2 SLP105 T02060128

Aviation forecast (TAF) for Portland International Airport

Retrieved 2021-09-25 00:42 UTC (5 hours ago):

TAF KPDX 242340Z 2500/2524 05006KT P6SM FEW100 FM250300 VRB03KT P6SM FEW180